首页
METAR-TAF:

METAR-TAF

机场 :

基西米, 佛罗里达州, 美国

纬度: 28-17-23N, 经度: 081-26-14W, 海拔: 25米

当前天气观测

该预报发布于17分钟前的15:56 UTC
风速7节,风向东南
温度 28°C
湿度 84%
气压 1019 hPa
能見度: 16.1公里
天空无云

METAR: KISM 051556Z 13007KT 10SM CLR 28/25 A3008 RMK AO2 SLP185 T02830250 PNO $

时间: 12:13 (16:13 UTC)

预报

该预报发布于4小时和33分钟前的11:40 UTC
预报有效从05日的 12点(UTC)到 06日的 12点(UTC)
风速节,风向
能見度: 10公里
散云层高于1000英尺
阴天层高于10000英尺
小雨
从 05日的 2000点(UTC)
风速7节,风向
能見度: 10公里
散云层高于3000英尺, 积雨云.
多云层高于6000英尺
阴天层高于12000英尺
附近有雷暴
短暂存在
从 05日的 21点(UTC)到 05日的 24点(UTC)
能見度: 4.8公里
多云层高于3000英尺, 积雨云.
雷暴, 雨
从 06日的 0000点(UTC)
风速3节,风向东转东南
能見度: 10公里
散云层高于2000英尺
多云层高于10000英尺
附近有阵雨

TAF: KISM 051140Z 0512/0612 00000KT P6SM -RA SCT010 OVC100 FM052000 17007KT P6SM VCTS SCT030CB BKN060 OVC120 TEMPO 0521/0524 3SM TSRA BKN030CB FM060000 11003KT P6SM VCSH SCT020 BKN100

超过4000个机场的气象观测和天气预报(METAR&TAF报告)。

可查询的气象台以黄色和红色小点在地图上表示。

将鼠标移到小点上方,可查看气象台名称。

然后点击查看天气观测和预报。

如需切换地图:点击带黑十字的绿色按钮放大地图;点击带横线的绿色按钮缩小地图;或者点击绿色箭头查看邻近地区的地图。


METAR-TAF: